createdAt,value
2022-07-29T00:02:25.579Z,9.30
2022-07-29T00:04:52.381Z,12.50
2022-07-29T00:07:19.335Z,7.30
2022-07-29T00:09:51.167Z,7.28
2022-07-29T00:12:25.464Z,7.80
2022-07-29T00:14:55.790Z,9.10
2022-07-29T00:17:23.398Z,11.18
2022-07-29T00:19:50.077Z,7.93
2022-07-29T00:22:21.052Z,7.72
2022-07-29T00:24:50.232Z,10.32
2022-07-29T00:27:17.700Z,7.93
2022-07-29T00:29:45.701Z,6.47
2022-07-29T00:32:12.472Z,9.05
2022-07-29T00:34:54.582Z,9.52
2022-07-29T00:37:21.255Z,7.60
2022-07-29T00:39:48.480Z,6.57
2022-07-29T00:42:15.157Z,9.90
2022-07-29T00:44:42.671Z,8.77
2022-07-29T00:47:11.438Z,8.57
2022-07-29T00:49:40.117Z,7.47
2022-07-29T00:52:08.261Z,7.47
2022-07-29T00:54:39.129Z,6.82
2022-07-29T00:57:12.437Z,11.38
2022-07-29T00:59:39.246Z,7.60
2022-07-29T01:02:06.157Z,13.35
2022-07-29T01:04:33.286Z,8.40
2022-07-29T01:07:02.895Z,8.55
2022-07-29T01:09:42.928Z,8.73
2022-07-29T01:12:22.420Z,8.45
2022-07-29T01:14:51.044Z,8.55
2022-07-29T01:17:25.199Z,9.85
2022-07-29T01:20:07.343Z,9.50
2022-07-29T01:22:35.021Z,7.28
2022-07-29T01:25:32.089Z,8.63
2022-07-29T01:30:43.045Z,10.60
2022-07-29T01:33:34.997Z,7.10
2022-07-29T01:36:06.803Z,10.40
2022-07-29T01:38:36.121Z,8.45
2022-07-29T01:41:16.072Z,9.35
2022-07-29T01:43:50.629Z,8.38
2022-07-29T01:46:25.423Z,7.72
2022-07-29T01:48:59.631Z,7.80
2022-07-29T01:51:34.976Z,10.43
2022-07-29T01:54:17.809Z,8.13
2022-07-29T01:56:48.351Z,11.20
2022-07-29T01:59:17.137Z,17.67
2022-07-29T02:01:46.715Z,9.20
2022-07-29T02:04:29.537Z,11.13
2022-07-29T02:07:01.991Z,8.90
2022-07-29T02:09:31.586Z,9.43
2022-07-29T02:12:00.559Z,8.45
2022-07-29T02:14:32.290Z,11.50
2022-07-29T02:17:01.860Z,10.07
2022-07-29T02:19:30.493Z,10.30
2022-07-29T02:21:58.674Z,10.10
2022-07-29T02:24:26.953Z,13.98
2022-07-29T02:26:56.966Z,9.65
2022-07-29T02:29:26.045Z,16.20
2022-07-29T02:31:55.455Z,15.85
2022-07-29T02:34:23.364Z,10.02
2022-07-29T02:36:51.585Z,10.15
2022-07-29T02:39:19.167Z,9.35
2022-07-29T02:41:51.028Z,9.60
2022-07-29T02:44:20.894Z,11.52
2022-07-29T02:46:53.182Z,9.52
2022-07-29T02:49:36.088Z,15.20
2022-07-29T02:52:08.768Z,9.45
2022-07-29T02:54:52.708Z,9.55
2022-07-29T02:57:28.518Z,13.43
2022-07-29T03:00:00.311Z,10.73
2022-07-29T03:02:28.931Z,11.98
2022-07-29T03:05:00.413Z,11.82
2022-07-29T03:07:28.349Z,8.55
2022-07-29T03:09:55.763Z,11.23
2022-07-29T03:12:23.836Z,14.70
2022-07-29T03:14:50.797Z,9.30
2022-07-29T03:17:17.751Z,10.63
2022-07-29T03:19:44.962Z,11.02
2022-07-29T03:22:12.087Z,14.60
2022-07-29T03:24:39.232Z,9.32
2022-07-29T03:27:06.757Z,8.65
2022-07-29T03:29:34.689Z,12.07
2022-07-29T03:32:07.855Z,12.45
2022-07-29T03:34:34.902Z,11.65
2022-07-29T03:37:01.551Z,14.00
2022-07-29T03:39:32.437Z,11.80
2022-07-29T03:42:02.209Z,10.35
2022-07-29T03:44:30.231Z,15.10
2022-07-29T03:47:01.019Z,17.85
2022-07-29T03:49:28.954Z,15.30
2022-07-29T03:51:55.940Z,14.40
2022-07-29T03:54:23.632Z,9.40
2022-07-29T03:56:53.272Z,15.02
2022-07-29T03:59:22.385Z,12.25
2022-07-29T04:01:50.076Z,13.27
2022-07-29T04:04:17.724Z,11.95
2022-07-29T04:06:48.226Z,12.30
2022-07-29T04:09:15.223Z,10.18
2022-07-29T04:12:02.408Z,11.88
2022-07-29T04:14:29.952Z,10.85
2022-07-29T04:16:56.600Z,12.57
2022-07-29T04:19:23.613Z,12.52
2022-07-29T04:21:50.479Z,11.30
2022-07-29T04:24:20.860Z,12.43
2022-07-29T04:26:48.038Z,17.73
2022-07-29T04:29:15.521Z,9.02
2022-07-29T04:31:43.080Z,8.85
2022-07-29T04:34:10.302Z,11.43
2022-07-29T04:36:37.225Z,7.85
2022-07-29T04:39:04.691Z,9.55
2022-07-29T04:41:33.329Z,13.05
2022-07-29T04:44:06.843Z,9.50
2022-07-29T04:46:34.545Z,13.25
2022-07-29T04:49:01.555Z,13.60
2022-07-29T04:51:28.652Z,11.60
2022-07-29T04:53:55.372Z,14.15
2022-07-29T04:56:22.031Z,11.25
2022-07-29T04:58:48.759Z,10.57
2022-07-29T05:01:15.749Z,9.95
2022-07-29T05:03:42.594Z,9.38
2022-07-29T05:06:09.298Z,10.93
2022-07-29T05:08:35.975Z,11.57
2022-07-29T05:11:12.033Z,13.77
2022-07-29T05:13:46.006Z,16.65
2022-07-29T05:16:14.363Z,13.70
2022-07-29T05:18:41.494Z,9.10
2022-07-29T05:21:08.190Z,14.85
2022-07-29T05:23:35.133Z,13.85
2022-07-29T05:26:02.062Z,9.48
2022-07-29T05:28:28.879Z,9.85
2022-07-29T05:30:55.693Z,10.77
2022-07-29T05:33:35.606Z,10.82
2022-07-29T05:36:07.890Z,11.25
2022-07-29T05:38:36.532Z,10.93
2022-07-29T05:41:03.996Z,10.88
2022-07-29T05:43:30.973Z,11.20
2022-07-29T05:45:58.129Z,14.60
2022-07-29T05:48:25.383Z,16.13
2022-07-29T05:50:52.113Z,10.80
2022-07-29T05:53:20.362Z,11.93
2022-07-29T05:55:48.444Z,13.70
2022-07-29T05:58:15.389Z,11.55
2022-07-29T06:00:42.232Z,14.82
2022-07-29T06:03:09.297Z,12.68
2022-07-29T06:05:35.979Z,11.70
2022-07-29T06:08:02.723Z,16.02
2022-07-29T06:10:29.636Z,12.85
2022-07-29T06:12:56.432Z,18.30
2022-07-29T06:15:23.239Z,18.60
2022-07-29T06:18:00.721Z,15.05
2022-07-29T06:20:31.450Z,11.00
2022-07-29T06:22:59.263Z,15.38
2022-07-29T06:25:26.203Z,15.63
2022-07-29T06:27:53.300Z,16.85
2022-07-29T06:30:20.092Z,12.93
2022-07-29T06:32:47.207Z,17.70
2022-07-29T06:38:00.692Z,12.48
2022-07-29T06:40:42.730Z,11.38
2022-07-29T06:43:09.771Z,12.70
2022-07-29T06:45:36.602Z,11.68
2022-07-29T06:48:03.635Z,12.35
2022-07-29T06:50:30.306Z,10.65
2022-07-29T06:52:57.116Z,12.68
2022-07-29T06:55:25.142Z,9.90
2022-07-29T06:57:52.425Z,10.07
2022-07-29T07:00:19.312Z,11.55
2022-07-29T07:02:46.203Z,11.00
2022-07-29T07:05:14.142Z,11.65
2022-07-29T07:07:40.858Z,12.57
2022-07-29T07:10:08.019Z,11.30
2022-07-29T07:12:34.699Z,12.90
2022-07-29T07:15:01.800Z,8.10
2022-07-29T07:17:28.512Z,10.90
2022-07-29T07:19:55.143Z,16.70
2022-07-29T07:22:21.953Z,8.43
2022-07-29T07:24:48.616Z,8.02
2022-07-29T07:27:15.494Z,11.45
2022-07-29T07:29:42.509Z,10.10
2022-07-29T07:32:11.101Z,11.25
2022-07-29T07:34:38.984Z,10.75
2022-07-29T07:37:06.387Z,9.38
2022-07-29T07:39:33.125Z,15.82
2022-07-29T07:42:00.135Z,12.52
2022-07-29T07:44:27.423Z,9.75
2022-07-29T07:46:54.554Z,9.77
2022-07-29T07:49:21.768Z,14.48
2022-07-29T07:51:50.956Z,17.48
2022-07-29T07:54:20.801Z,11.57
2022-07-29T07:56:53.034Z,9.52
2022-07-29T07:59:20.168Z,11.80
2022-07-29T08:01:48.409Z,11.93
2022-07-29T08:04:27.361Z,15.10
2022-07-29T08:06:56.720Z,10.38
2022-07-29T08:09:31.187Z,9.82
2022-07-29T08:12:00.347Z,10.43
2022-07-29T08:14:27.326Z,12.90
2022-07-29T08:16:54.758Z,10.60
2022-07-29T08:19:21.473Z,9.93
2022-07-29T08:21:48.782Z,8.00
2022-07-29T08:24:30.901Z,11.82
2022-07-29T08:27:00.838Z,14.40
2022-07-29T08:29:27.449Z,12.07
2022-07-29T08:31:54.433Z,13.90
2022-07-29T08:34:28.098Z,13.30
2022-07-29T08:36:55.715Z,15.15
2022-07-29T08:39:23.327Z,11.18
2022-07-29T08:41:57.434Z,15.88
2022-07-29T08:44:30.857Z,11.20
2022-07-29T08:46:58.364Z,16.05
2022-07-29T08:49:25.319Z,10.95
2022-07-29T08:51:54.897Z,10.07
2022-07-29T08:54:24.432Z,10.80
2022-07-29T08:56:52.166Z,10.50
2022-07-29T08:59:23.872Z,11.02
2022-07-29T09:01:55.187Z,12.90
2022-07-29T09:04:25.872Z,12.30
2022-07-29T09:06:55.323Z,11.80
2022-07-29T09:09:22.532Z,14.50
2022-07-29T09:11:49.439Z,11.57
2022-07-29T09:14:16.377Z,9.05
2022-07-29T09:17:01.068Z,8.65
2022-07-29T09:19:31.493Z,11.57
2022-07-29T09:22:03.103Z,11.25
2022-07-29T09:24:40.654Z,10.20
2022-07-29T09:27:10.745Z,11.48
2022-07-29T09:29:38.565Z,13.55
2022-07-29T09:32:09.496Z,12.07
2022-07-29T09:34:36.181Z,16.23
2022-07-29T09:37:03.883Z,16.88
2022-07-29T09:39:33.064Z,12.65
2022-07-29T09:42:02.614Z,17.33
2022-07-29T09:44:43.502Z,17.48
2022-07-29T09:47:10.346Z,14.38
2022-07-29T09:49:53.423Z,17.30
2022-07-29T09:52:21.323Z,14.00
2022-07-29T09:54:48.133Z,17.48
2022-07-29T09:57:31.251Z,21.73
2022-07-29T10:00:02.912Z,25.48
2022-07-29T10:02:31.967Z,20.30
2022-07-29T10:05:00.497Z,20.65
2022-07-29T10:07:43.518Z,22.73
2022-07-29T10:10:10.937Z,24.65
2022-07-29T10:12:51.824Z,23.42
2022-07-29T10:15:19.055Z,28.15
2022-07-29T10:17:46.557Z,30.27
2022-07-29T10:20:16.374Z,28.38
2022-07-29T10:22:52.900Z,31.02
2022-07-29T10:25:21.599Z,29.27
2022-07-29T10:27:49.822Z,28.88
2022-07-29T10:30:17.850Z,25.08
2022-07-29T10:33:15.795Z,21.02
2022-07-29T10:35:54.834Z,25.08
2022-07-29T10:38:48.015Z,30.60
2022-07-29T10:41:47.623Z,29.30
2022-07-29T10:44:22.918Z,31.55
2022-07-29T10:46:52.525Z,35.38
2022-07-29T10:49:24.761Z,23.70
2022-07-29T10:52:08.229Z,31.48
2022-07-29T10:54:35.898Z,29.13
2022-07-29T10:57:17.843Z,22.67
2022-07-29T10:59:46.547Z,15.60
2022-07-29T11:02:43.947Z,29.65
2022-07-29T11:05:18.791Z,20.58
2022-07-29T11:08:20.418Z,16.70
2022-07-29T11:10:49.700Z,13.25
2022-07-29T11:13:47.358Z,21.35
2022-07-29T11:16:16.442Z,10.88
2022-07-29T11:19:14.341Z,15.05
2022-07-29T11:21:54.124Z,9.93
2022-07-29T11:27:20.033Z,6.97
2022-07-29T11:29:58.667Z,7.90
2022-07-29T11:32:37.660Z,8.63
2022-07-29T11:35:38.441Z,12.75
2022-07-29T11:38:31.942Z,8.45
2022-07-29T11:41:14.520Z,12.35
2022-07-29T11:43:50.639Z,12.68
2022-07-29T11:46:39.567Z,7.75
2022-07-29T11:49:09.829Z,7.43
2022-07-29T11:51:48.295Z,9.20
2022-07-29T11:54:18.805Z,13.15
2022-07-29T11:56:55.011Z,8.30
2022-07-29T11:59:22.469Z,8.48
2022-07-29T12:02:18.541Z,14.93
2022-07-29T12:04:57.855Z,8.05
2022-07-29T12:07:01.248Z,10.20
2022-07-29T12:07:35.767Z,10.23
2022-07-29T12:10:04.541Z,7.68
2022-07-29T12:12:33.555Z,7.05
2022-07-29T12:15:12.272Z,7.25
2022-07-29T12:17:40.339Z,8.77
2022-07-29T12:20:07.303Z,9.20
2022-07-29T12:22:40.288Z,8.02
2022-07-29T12:25:32.410Z,13.43
2022-07-29T12:28:03.437Z,7.45
2022-07-29T12:30:47.144Z,6.28
2022-07-29T12:33:16.396Z,7.03
2022-07-29T12:35:47.814Z,5.05
2022-07-29T12:38:21.571Z,7.68
2022-07-29T12:40:49.969Z,9.73
2022-07-29T12:43:19.445Z,5.97
2022-07-29T12:45:49.453Z,6.60
2022-07-29T12:48:18.040Z,4.20
2022-07-29T12:50:54.897Z,4.95
2022-07-29T12:53:37.269Z,10.55
2022-07-29T12:56:48.594Z,4.63
2022-07-29T12:59:46.586Z,5.85
2022-07-29T13:02:58.327Z,6.18
2022-07-29T13:06:08.266Z,5.68
2022-07-29T13:09:27.281Z,4.40
2022-07-29T13:12:52.232Z,4.47
2022-07-29T13:16:18.283Z,4.38
2022-07-29T13:19:29.313Z,3.25
2022-07-29T13:22:30.260Z,7.88
2022-07-29T13:25:51.263Z,7.65
2022-07-29T13:28:51.598Z,3.88
2022-07-29T13:32:01.586Z,5.20
2022-07-29T13:35:15.298Z,3.80
2022-07-29T13:38:31.095Z,5.18
2022-07-29T13:41:31.597Z,3.30
2022-07-29T13:44:42.282Z,3.65
2022-07-29T13:47:52.275Z,5.47
2022-07-29T13:50:52.352Z,4.15
2022-07-29T13:54:02.268Z,3.17
2022-07-29T13:57:02.342Z,4.03
2022-07-29T14:00:12.288Z,4.93
2022-07-29T14:03:22.292Z,6.63
2022-07-29T14:06:32.263Z,3.92
2022-07-29T14:09:42.303Z,4.60
2022-07-29T14:12:52.292Z,4.63
2022-07-29T14:15:52.396Z,9.23
2022-07-29T14:19:05.287Z,9.35
2022-07-29T14:22:05.391Z,11.15
2022-07-29T14:25:15.770Z,7.15
2022-07-29T14:28:15.383Z,10.43
2022-07-29T14:31:26.355Z,6.63
2022-07-29T14:34:39.345Z,8.63
2022-07-29T14:37:49.307Z,6.30
2022-07-29T14:40:59.321Z,6.10
2022-07-29T14:44:11.338Z,12.88
2022-07-29T14:47:21.313Z,9.38
2022-07-29T14:50:32.292Z,9.55
2022-07-29T14:53:33.761Z,7.85
2022-07-29T14:56:47.036Z,4.53
2022-07-29T14:59:47.399Z,5.03
2022-07-29T15:03:02.398Z,10.68
2022-07-29T15:06:12.358Z,8.63
2022-07-29T15:09:22.365Z,4.75
2022-07-29T15:12:22.422Z,7.00
2022-07-29T15:15:32.353Z,5.55
2022-07-29T15:18:42.348Z,4.30
2022-07-29T15:21:53.322Z,5.00
2022-07-29T15:24:53.395Z,6.50
2022-07-29T15:28:03.363Z,6.35
2022-07-29T15:31:03.425Z,5.25
2022-07-29T15:34:13.357Z,4.97
2022-07-29T15:37:23.353Z,5.00
2022-07-29T15:40:23.685Z,6.60
2022-07-29T15:43:33.366Z,7.97
2022-07-29T15:46:58.623Z,4.32
2022-07-29T15:49:58.485Z,8.60
2022-07-29T15:53:08.378Z,5.60
2022-07-29T15:56:18.363Z,14.52
2022-07-29T15:59:28.408Z,4.55
2022-07-29T16:02:38.371Z,3.47
2022-07-29T16:05:52.386Z,3.13
2022-07-29T16:08:52.430Z,2.85
2022-07-29T16:12:03.389Z,5.25
2022-07-29T16:15:24.380Z,6.00
2022-07-29T16:18:30.563Z,3.78
2022-07-29T16:21:41.372Z,6.40
2022-07-29T16:24:41.838Z,6.05
2022-07-29T16:27:51.391Z,4.20
2022-07-29T16:30:57.962Z,4.60
2022-07-29T16:34:08.406Z,4.18
2022-07-29T16:37:08.748Z,3.85
2022-07-29T16:40:20.387Z,5.70
2022-07-29T16:43:30.390Z,6.15
2022-07-29T16:46:30.570Z,9.15
2022-07-29T16:49:40.402Z,7.88
2022-07-29T16:52:50.408Z,3.38
2022-07-29T16:55:50.693Z,3.38
2022-07-29T16:59:01.422Z,9.90
2022-07-29T17:02:12.443Z,9.20
2022-07-29T17:05:24.464Z,4.55
2022-07-29T17:08:34.423Z,6.63
2022-07-29T17:11:53.687Z,5.18
2022-07-29T17:15:04.416Z,7.93
2022-07-29T17:18:14.448Z,9.50
2022-07-29T17:21:25.417Z,7.53
2022-07-29T17:24:35.441Z,7.32
2022-07-29T17:27:35.915Z,5.88
2022-07-29T17:30:46.428Z,9.00
2022-07-29T17:33:59.911Z,8.65
2022-07-29T17:37:09.504Z,6.10
2022-07-29T17:40:22.445Z,8.23
2022-07-29T17:43:35.458Z,6.28
2022-07-29T17:46:40.664Z,9.40
2022-07-29T17:49:51.417Z,5.57
2022-07-29T17:53:05.401Z,11.45
2022-07-29T17:56:25.449Z,6.45
2022-07-29T17:59:35.447Z,5.70
2022-07-29T18:02:46.503Z,8.98
2022-07-29T18:05:46.519Z,4.57
2022-07-29T18:08:57.461Z,6.18
2022-07-29T18:12:07.446Z,5.78
2022-07-29T18:15:08.185Z,4.38
2022-07-29T18:18:17.453Z,8.05
2022-07-29T18:21:38.126Z,10.20
2022-07-29T18:24:48.504Z,7.97
2022-07-29T18:28:00.460Z,9.45
2022-07-29T18:31:10.563Z,9.75
2022-07-29T18:34:21.470Z,9.15
2022-07-29T18:38:01.820Z,11.02
2022-07-29T18:41:01.474Z,7.80
2022-07-29T18:44:01.640Z,10.32
2022-07-29T18:47:14.468Z,7.35
2022-07-29T18:50:15.519Z,5.78
2022-07-29T18:53:28.473Z,5.72
2022-07-29T18:56:29.661Z,11.93
2022-07-29T18:59:40.481Z,7.20
2022-07-29T19:02:53.731Z,10.60
2022-07-29T19:05:53.828Z,6.97
2022-07-29T19:09:03.488Z,7.75
2022-07-29T19:12:13.514Z,11.32
2022-07-29T19:15:24.517Z,6.47
2022-07-29T19:18:34.509Z,5.10
2022-07-29T19:21:35.937Z,5.68
2022-07-29T19:24:45.489Z,9.00
2022-07-29T19:27:55.516Z,7.10
2022-07-29T19:31:05.589Z,6.05
2022-07-29T19:34:17.501Z,7.93
2022-07-29T19:37:17.792Z,8.95
2022-07-29T19:40:27.501Z,6.78
2022-07-29T19:43:51.085Z,9.75
2022-07-29T19:47:03.528Z,10.88
2022-07-29T19:50:04.307Z,9.20
2022-07-29T19:53:15.521Z,7.97
2022-07-29T19:56:34.533Z,8.82
2022-07-29T19:59:38.939Z,6.05
2022-07-29T20:02:49.611Z,6.47
2022-07-29T20:05:52.462Z,13.60
2022-07-29T20:09:02.524Z,4.10
2022-07-29T20:12:14.540Z,7.75
2022-07-29T20:15:26.544Z,5.65
2022-07-29T20:18:39.558Z,3.10
2022-07-29T20:21:49.548Z,6.43
2022-07-29T20:24:59.543Z,10.43
2022-07-29T20:28:02.624Z,4.55
2022-07-29T20:31:18.571Z,3.28
2022-07-29T20:34:28.544Z,6.90
2022-07-29T20:37:28.929Z,9.27
2022-07-29T20:40:38.650Z,9.18
2022-07-29T20:43:39.323Z,19.83
2022-07-29T20:46:49.563Z,11.65
2022-07-29T20:50:00.547Z,9.38
2022-07-29T20:53:00.660Z,13.30
2022-07-29T20:56:10.561Z,13.32
2022-07-29T20:59:00.561Z,13.32
2022-07-29T21:01:41.427Z,16.67
2022-07-29T21:04:32.650Z,11.73
2022-07-29T21:07:22.558Z,14.50
2022-07-29T21:10:02.613Z,12.35
2022-07-29T21:12:52.576Z,14.43
2022-07-29T21:15:42.591Z,10.30
2022-07-29T21:18:32.411Z,13.65
2022-07-29T21:21:23.936Z,9.70
2022-07-29T21:24:04.489Z,16.08
2022-07-29T21:30:00.228Z,14.75
2022-07-29T21:32:40.717Z,12.50
2022-07-29T21:38:38.718Z,13.20
2022-07-29T21:41:28.603Z,9.70
2022-07-29T21:44:09.682Z,9.38
2022-07-29T21:46:59.665Z,11.65
2022-07-29T21:49:49.810Z,11.73
2022-07-29T21:52:40.575Z,9.55
2022-07-29T21:55:37.644Z,8.98
2022-07-29T22:01:39.078Z,7.32
2022-07-29T22:04:22.110Z,12.32
2022-07-29T22:07:11.582Z,12.07
2022-07-29T22:09:51.886Z,10.85
2022-07-29T22:12:41.587Z,11.93
2022-07-29T22:15:32.586Z,12.75
2022-07-29T22:18:22.581Z,9.05
2022-07-29T22:21:12.572Z,12.85
2022-07-29T22:23:52.672Z,9.30
2022-07-29T22:26:42.570Z,11.05
2022-07-29T22:29:22.646Z,12.38
2022-07-29T22:32:12.587Z,12.52
2022-07-29T22:35:02.568Z,10.07
2022-07-29T22:37:52.630Z,11.20
2022-07-29T22:40:42.581Z,14.63
2022-07-29T22:43:36.564Z,11.82
2022-07-29T22:46:30.642Z,7.93
2022-07-29T22:49:10.991Z,11.23
2022-07-29T22:52:00.598Z,12.85
2022-07-29T22:54:57.618Z,9.38
2022-07-29T22:57:47.602Z,8.45
2022-07-29T23:00:27.680Z,7.97
2022-07-29T23:03:17.631Z,11.98
2022-07-29T23:05:57.645Z,7.05
2022-07-29T23:08:47.630Z,9.30
2022-07-29T23:11:27.686Z,7.88
2022-07-29T23:14:17.594Z,10.70
2022-07-29T23:16:57.922Z,6.47
2022-07-29T23:19:47.596Z,9.15
2022-07-29T23:22:37.606Z,9.65
2022-07-29T23:25:27.621Z,6.05
2022-07-29T23:28:11.658Z,5.88
2022-07-29T23:31:02.637Z,6.20
2022-07-29T23:33:52.611Z,5.65
2022-07-29T23:36:42.622Z,4.43
2022-07-29T23:39:22.707Z,4.50
2022-07-29T23:42:13.660Z,5.22
2022-07-29T23:44:53.686Z,6.72
2022-07-29T23:47:43.639Z,4.47
2022-07-29T23:50:23.674Z,20.00
2022-07-29T23:53:13.601Z,5.13
2022-07-29T23:56:07.595Z,5.07
2022-07-29T23:58:57.673Z,3.65
